createdAt,value
2023-04-01T00:02:55.203Z,11.63
2023-04-01T00:05:58.693Z,11.52
2023-04-01T00:09:01.014Z,11.35
2023-04-01T00:12:03.470Z,11.27
2023-04-01T00:15:07.954Z,11.27
2023-04-01T00:18:10.318Z,11.26
2023-04-01T00:21:12.617Z,11.36
2023-04-01T00:24:16.028Z,11.37
2023-04-01T00:27:18.586Z,11.38
2023-04-01T00:30:21.206Z,11.34
2023-04-01T00:33:23.456Z,11.54
2023-04-01T00:36:26.201Z,11.49
2023-04-01T00:39:33.006Z,11.54
2023-04-01T00:42:35.368Z,11.26
2023-04-01T00:45:40.468Z,11.32
2023-04-01T00:48:52.678Z,11.39
2023-04-01T00:51:57.294Z,11.27
2023-04-01T00:55:00.343Z,11.36
2023-04-01T00:58:05.151Z,11.31
2023-04-01T01:01:07.970Z,11.26
2023-04-01T01:04:29.595Z,11.18
2023-04-01T01:07:49.254Z,11.22
2023-04-01T01:10:51.658Z,11.23
2023-04-01T01:14:02.666Z,11.20
2023-04-01T01:17:23.614Z,11.45
2023-04-01T01:20:28.937Z,11.16
2023-04-01T01:23:55.909Z,11.35
2023-04-01T01:27:09.305Z,11.36
2023-04-01T01:30:38.577Z,11.28
2023-04-01T01:33:46.943Z,11.38
2023-04-01T01:36:54.020Z,11.23
2023-04-01T01:40:00.809Z,11.38
2023-04-01T01:43:09.951Z,11.30
2023-04-01T01:46:17.115Z,11.52
2023-04-01T01:49:20.813Z,11.42
2023-04-01T01:52:24.508Z,11.34
2023-04-01T01:55:34.220Z,11.42
2023-04-01T01:58:41.901Z,11.24
2023-04-01T02:01:52.088Z,11.46
2023-04-01T02:04:55.180Z,11.34
2023-04-01T02:08:21.414Z,11.46
2023-04-01T02:11:28.767Z,11.55
2023-04-01T02:14:38.668Z,11.54
2023-04-01T02:17:44.382Z,11.47
2023-04-01T02:20:47.138Z,11.53
2023-04-01T02:23:50.932Z,11.58
2023-04-01T02:26:53.514Z,11.52
2023-04-01T02:29:55.932Z,11.35
2023-04-01T02:32:59.369Z,11.32
2023-04-01T02:36:01.818Z,11.48
2023-04-01T02:39:05.639Z,11.58
2023-04-01T02:42:07.943Z,11.44
2023-04-01T02:45:11.134Z,11.60
2023-04-01T02:48:15.106Z,11.46
2023-04-01T02:51:18.439Z,11.47
2023-04-01T02:54:20.970Z,11.23
2023-04-01T02:57:23.420Z,11.41
2023-04-01T03:00:26.251Z,11.45
2023-04-01T03:03:28.722Z,11.52
2023-04-01T03:06:31.486Z,11.47
2023-04-01T03:09:33.797Z,11.57
2023-04-01T03:12:36.905Z,11.54
2023-04-01T03:15:39.202Z,11.48
2023-04-01T03:18:41.787Z,11.35
2023-04-01T03:21:44.082Z,11.32
2023-04-01T03:24:46.366Z,11.43
2023-04-01T03:27:48.811Z,11.40
2023-04-01T03:30:51.456Z,11.39
2023-04-01T03:33:53.851Z,11.37
2023-04-01T03:36:56.380Z,11.33
2023-04-01T03:39:58.692Z,11.46
2023-04-01T03:43:01.190Z,11.33
2023-04-01T03:46:03.763Z,11.28
2023-04-01T03:49:12.823Z,11.20
2023-04-01T03:52:15.578Z,11.35
2023-04-01T03:55:19.137Z,11.25
2023-04-01T03:58:23.427Z,11.21
2023-04-01T04:01:27.332Z,11.35
2023-04-01T04:04:32.008Z,11.30
2023-04-01T04:07:35.984Z,11.47
2023-04-01T04:10:42.366Z,11.49
2023-04-01T04:13:44.744Z,11.39
2023-04-01T04:16:47.225Z,11.31
2023-04-01T04:19:49.627Z,11.41
2023-04-01T04:22:52.549Z,11.19
2023-04-01T04:25:56.583Z,11.29
2023-04-01T04:28:58.856Z,11.28
2023-04-01T04:32:01.874Z,11.17
2023-04-01T04:35:04.772Z,11.31
2023-04-01T04:38:08.347Z,11.07
2023-04-01T04:41:18.825Z,11.16
2023-04-01T04:44:24.361Z,11.15
2023-04-01T04:47:26.714Z,11.17
2023-04-01T04:50:29.183Z,11.37
2023-04-01T04:53:31.882Z,11.36
2023-04-01T04:56:34.420Z,11.29
2023-04-01T04:59:41.325Z,11.30
2023-04-01T05:02:54.949Z,11.34
2023-04-01T05:05:57.489Z,11.37
2023-04-01T05:09:00.536Z,11.25
2023-04-01T05:12:03.276Z,11.34
2023-04-01T05:15:18.526Z,11.37
2023-04-01T05:18:20.933Z,11.33
2023-04-01T05:21:23.310Z,11.40
2023-04-01T05:24:26.156Z,11.37
2023-04-01T05:27:28.627Z,11.37
2023-04-01T05:30:30.956Z,11.34
2023-04-01T05:33:57.096Z,11.37
2023-04-01T05:36:59.504Z,11.36
2023-04-01T05:40:02.120Z,11.48
2023-04-01T05:43:05.082Z,11.60
2023-04-01T05:46:07.768Z,11.68
2023-04-01T05:49:21.075Z,11.61
2023-04-01T05:52:25.340Z,11.82
2023-04-01T05:55:27.749Z,11.89
2023-04-01T05:58:30.305Z,11.94
2023-04-01T06:01:32.760Z,11.96
2023-04-01T06:04:39.146Z,12.21
2023-04-01T06:07:41.614Z,12.31
2023-04-01T06:11:02.657Z,12.36
2023-04-01T06:14:20.116Z,12.34
2023-04-01T06:17:37.865Z,12.36
2023-04-01T06:20:45.287Z,12.57
2023-04-01T06:23:54.203Z,12.61
2023-04-01T06:27:37.766Z,12.75
2023-04-01T06:30:43.241Z,12.87
2023-04-01T06:34:04.501Z,12.74
2023-04-01T06:37:58.291Z,12.87
2023-04-01T06:41:19.337Z,12.88
2023-04-01T06:44:28.121Z,13.02
2023-04-01T06:48:18.038Z,13.07
2023-04-01T06:51:52.640Z,13.15
2023-04-01T06:55:39.168Z,13.65
2023-04-01T06:59:03.542Z,13.74
2023-04-01T07:02:17.579Z,13.94
2023-04-01T07:05:21.167Z,13.98
2023-04-01T07:08:27.032Z,14.19
2023-04-01T07:11:35.552Z,14.40
2023-04-01T07:14:57.626Z,14.41
2023-04-01T07:18:46.666Z,14.89
2023-04-01T07:22:12.818Z,14.80
2023-04-01T07:25:43.481Z,14.99
2023-04-01T07:29:18.058Z,15.45
2023-04-01T07:32:41.445Z,15.64
2023-04-01T07:35:55.339Z,15.45
2023-04-01T07:39:05.912Z,15.57
2023-04-01T07:42:43.041Z,15.75
2023-04-01T07:45:58.734Z,15.73
2023-04-01T07:49:19.482Z,15.98
2023-04-01T07:52:41.007Z,16.17
2023-04-01T07:56:04.330Z,16.10
2023-04-01T07:59:21.506Z,16.14
2023-04-01T08:02:50.550Z,16.28
2023-04-01T08:06:08.416Z,16.94
2023-04-01T08:09:41.256Z,17.19
2023-04-01T08:13:23.453Z,16.87
2023-04-01T08:16:54.731Z,16.79
2023-04-01T08:20:23.891Z,17.11
2023-04-01T08:23:30.372Z,17.06
2023-04-01T08:26:41.438Z,17.39
2023-04-01T08:30:04.169Z,16.81
2023-04-01T08:33:14.093Z,16.67
2023-04-01T08:36:18.615Z,16.84
2023-04-01T08:39:31.871Z,17.04
2023-04-01T08:42:58.738Z,16.55
2023-04-01T08:46:31.818Z,16.50
2023-04-01T08:49:52.552Z,16.27
2023-04-01T08:53:36.152Z,16.20
2023-04-01T08:56:48.918Z,16.25
2023-04-01T09:00:06.758Z,16.41
2023-04-01T09:03:53.445Z,16.42
2023-04-01T09:07:07.838Z,16.57
2023-04-01T09:10:15.937Z,16.63
2023-04-01T09:13:27.424Z,16.40
2023-04-01T09:17:07.931Z,16.35
2023-04-01T09:20:32.238Z,16.63
2023-04-01T09:24:27.530Z,16.43
2023-04-01T09:27:32.915Z,16.76
2023-04-01T09:31:06.320Z,16.93
2023-04-01T09:34:42.555Z,17.05
2023-04-01T09:37:45.490Z,16.90
2023-04-01T09:41:14.661Z,17.09
2023-04-01T09:44:35.926Z,17.04
2023-04-01T09:48:09.536Z,17.22
2023-04-01T09:51:14.896Z,17.10
2023-04-01T09:54:27.492Z,16.32
2023-04-01T09:57:45.172Z,16.31
2023-04-01T10:01:21.196Z,16.43
2023-04-01T10:05:01.923Z,15.81
2023-04-01T10:08:26.439Z,15.59
2023-04-01T10:11:53.653Z,15.88
2023-04-01T10:15:34.852Z,16.17
2023-04-01T10:18:58.125Z,16.11
2023-04-01T10:22:17.057Z,16.07
2023-04-01T10:25:39.713Z,16.18
2023-04-01T10:29:01.117Z,16.25
2023-04-01T10:32:54.846Z,16.04
2023-04-01T10:36:17.380Z,15.83
2023-04-01T10:39:36.632Z,15.54
2023-04-01T10:43:16.453Z,15.34
2023-04-01T10:46:34.575Z,15.53
2023-04-01T10:49:39.939Z,15.35
2023-04-01T10:53:07.425Z,15.27
2023-04-01T10:56:51.462Z,15.53
2023-04-01T11:00:24.566Z,15.23
2023-04-01T11:04:23.910Z,15.44
2023-04-01T11:08:22.920Z,15.66
2023-04-01T11:11:55.453Z,15.96
2023-04-01T11:15:01.000Z,16.19
2023-04-01T11:18:21.754Z,16.00
2023-04-01T11:21:54.587Z,16.38
2023-04-01T11:25:10.497Z,16.39
2023-04-01T11:28:35.610Z,16.36
2023-04-01T11:31:41.621Z,16.81
2023-04-01T11:35:02.977Z,16.50
2023-04-01T11:38:19.216Z,16.44
2023-04-01T11:41:46.286Z,16.34
2023-04-01T11:45:32.056Z,16.17
2023-04-01T11:48:37.582Z,15.84
2023-04-01T11:51:46.099Z,15.56
2023-04-01T11:54:54.459Z,15.41
2023-04-01T11:58:13.024Z,15.17
2023-04-01T12:01:20.683Z,15.03
2023-04-01T12:04:49.577Z,15.02
2023-04-01T12:08:00.988Z,15.05
2023-04-01T12:11:34.524Z,15.02
2023-04-01T12:15:00.573Z,15.09
2023-04-01T12:18:06.069Z,15.15
2023-04-01T12:21:18.721Z,15.27
2023-04-01T12:24:49.173Z,15.50
2023-04-01T12:28:15.994Z,15.87
2023-04-01T12:31:45.066Z,16.19
2023-04-01T12:34:59.470Z,16.06
2023-04-01T12:38:24.687Z,16.06
2023-04-01T12:41:42.107Z,15.93
2023-04-01T12:44:53.715Z,16.06
2023-04-01T12:48:03.246Z,16.19
2023-04-01T12:51:23.255Z,16.21
2023-04-01T12:54:41.381Z,16.14
2023-04-01T12:57:54.310Z,16.78
2023-04-01T13:01:12.238Z,17.28
2023-04-01T13:04:20.568Z,17.31
2023-04-01T13:07:34.883Z,17.09
2023-04-01T13:10:45.554Z,17.28
2023-04-01T13:14:15.996Z,17.61
2023-04-01T13:17:36.635Z,17.58
2023-04-01T13:20:44.958Z,17.81
2023-04-01T13:23:56.463Z,17.51
2023-04-01T13:27:04.823Z,17.36
2023-04-01T13:30:19.229Z,17.53
2023-04-01T13:33:35.122Z,17.48
2023-04-01T13:36:37.371Z,17.70
2023-04-01T13:39:45.682Z,17.59
2023-04-01T13:42:52.962Z,17.63
2023-04-01T13:46:07.464Z,17.87
2023-04-01T13:49:27.456Z,17.84
2023-04-01T13:52:35.589Z,17.80
2023-04-01T13:55:46.775Z,17.70
2023-04-01T13:59:13.755Z,17.60
2023-04-01T14:02:22.028Z,17.63
2023-04-01T14:05:44.072Z,17.87
2023-04-01T14:09:11.060Z,17.70
2023-04-01T14:12:42.391Z,17.80
2023-04-01T14:15:44.693Z,17.99
2023-04-01T14:19:09.894Z,17.60
2023-04-01T14:22:27.316Z,17.44
2023-04-01T14:25:44.937Z,17.13
2023-04-01T14:29:04.298Z,16.96
2023-04-01T14:32:21.747Z,16.75
2023-04-01T14:35:31.413Z,16.64
2023-04-01T14:38:52.917Z,16.35
2023-04-01T14:42:26.115Z,16.16
2023-04-01T14:45:53.103Z,16.19
2023-04-01T14:49:00.543Z,16.19
2023-04-01T14:52:13.025Z,16.23
2023-04-01T14:55:24.935Z,15.90
2023-04-01T14:58:48.518Z,16.18
2023-04-01T15:02:12.808Z,16.23
2023-04-01T15:05:16.765Z,16.29
2023-04-01T15:08:24.665Z,16.15
2023-04-01T15:11:39.118Z,16.00
2023-04-01T15:14:51.117Z,16.14
2023-04-01T15:18:16.700Z,16.29
2023-04-01T15:21:37.821Z,16.25
2023-04-01T15:25:04.600Z,16.14
2023-04-01T15:28:37.484Z,16.08
2023-04-01T15:31:48.013Z,16.03
2023-04-01T15:35:12.148Z,16.03
2023-04-01T15:38:48.633Z,16.01
2023-04-01T15:42:36.251Z,15.99
2023-04-01T15:45:49.649Z,16.04
2023-04-01T15:49:20.450Z,15.97
2023-04-01T15:52:26.107Z,15.86
2023-04-01T15:55:32.992Z,15.88
2023-04-01T15:58:52.440Z,15.72
2023-04-01T16:02:32.140Z,15.74
2023-04-01T16:06:21.187Z,15.86
2023-04-01T16:09:26.237Z,15.88
2023-04-01T16:12:48.141Z,15.79
2023-04-01T16:15:54.270Z,15.72
2023-04-01T16:19:26.568Z,15.71
2023-04-01T16:22:49.910Z,15.71
2023-04-01T16:26:23.818Z,15.81
2023-04-01T16:29:28.397Z,15.87
2023-04-01T16:32:47.349Z,15.83
2023-04-01T16:36:23.708Z,15.76
2023-04-01T16:39:42.000Z,15.75
2023-04-01T16:43:12.544Z,15.76
2023-04-01T16:46:14.849Z,15.81
2023-04-01T16:49:35.746Z,15.80
2023-04-01T16:52:47.784Z,15.73
2023-04-01T16:56:02.683Z,15.76
2023-04-01T16:59:11.946Z,15.72
2023-04-01T17:02:15.875Z,15.69
2023-04-01T17:05:18.278Z,15.69
2023-04-01T17:08:27.204Z,15.65
2023-04-01T17:11:37.683Z,15.48
2023-04-01T17:14:55.914Z,15.50
2023-04-01T17:18:18.171Z,15.37
2023-04-01T17:21:47.640Z,15.25
2023-04-01T17:25:21.015Z,15.20
2023-04-01T17:28:38.553Z,15.26
2023-04-01T17:31:55.898Z,15.17
2023-04-01T17:35:15.460Z,15.12
2023-04-01T17:38:36.366Z,14.95
2023-04-01T17:42:05.569Z,14.87
2023-04-01T17:45:34.130Z,14.87
2023-04-01T17:48:55.467Z,14.77
2023-04-01T17:52:00.890Z,14.78
2023-04-01T17:55:27.975Z,14.73
2023-04-01T17:58:36.560Z,14.57
2023-04-01T18:01:44.751Z,14.50
2023-04-01T18:04:53.231Z,14.43
2023-04-01T18:08:48.230Z,14.32
2023-04-01T18:12:09.114Z,14.51
2023-04-01T18:15:27.735Z,14.52
2023-04-01T18:19:08.484Z,14.36
2023-04-01T18:22:17.072Z,14.44
2023-04-01T18:25:43.617Z,14.33
2023-04-01T18:28:54.387Z,14.29
2023-04-01T18:32:13.294Z,14.47
2023-04-01T18:36:16.347Z,14.43
2023-04-01T18:39:26.963Z,14.41
2023-04-01T18:43:03.847Z,14.36
2023-04-01T18:46:45.770Z,14.39
2023-04-01T18:49:54.126Z,14.37
2023-04-01T18:53:30.174Z,14.38
2023-04-01T18:56:43.368Z,14.30
2023-04-01T18:59:56.672Z,14.35
2023-04-01T19:03:13.064Z,14.28
2023-04-01T19:06:20.197Z,14.29
2023-04-01T19:09:33.569Z,14.40
2023-04-01T19:13:03.779Z,14.35
2023-04-01T19:16:27.041Z,14.21
2023-04-01T19:19:46.177Z,14.10
2023-04-01T19:23:21.798Z,14.04
2023-04-01T19:26:31.512Z,13.90
2023-04-01T19:29:45.860Z,13.92
2023-04-01T19:33:36.621Z,13.85
2023-04-01T19:37:01.284Z,13.84
2023-04-01T19:40:45.826Z,13.72
2023-04-01T19:43:48.523Z,13.67
2023-04-01T19:46:55.789Z,13.55
2023-04-01T19:50:22.542Z,13.64
2023-04-01T19:53:41.922Z,13.56
2023-04-01T19:56:52.571Z,13.54
2023-04-01T20:00:01.543Z,13.46
2023-04-01T20:03:34.267Z,13.48
2023-04-01T20:06:39.502Z,13.36
2023-04-01T20:09:47.724Z,13.36
2023-04-01T20:13:08.190Z,13.45
2023-04-01T20:16:12.027Z,13.43
2023-04-01T20:19:14.551Z,13.36
2023-04-01T20:22:38.171Z,13.43
2023-04-01T20:25:44.591Z,13.46
2023-04-01T20:29:09.051Z,13.43
2023-04-01T20:32:34.724Z,13.45
2023-04-01T20:35:44.261Z,13.24
2023-04-01T20:39:14.075Z,13.36
2023-04-01T20:42:25.399Z,13.35
2023-04-01T20:45:34.382Z,13.19
2023-04-01T20:48:55.489Z,13.18
2023-04-01T20:52:26.508Z,13.06
2023-04-01T20:55:32.039Z,12.93
2023-04-01T20:58:56.003Z,12.93
2023-04-01T21:02:04.274Z,12.89
2023-04-01T21:05:21.331Z,12.81
2023-04-01T21:08:49.047Z,12.77
2023-04-01T21:12:06.672Z,12.69
2023-04-01T21:15:44.376Z,12.39
2023-04-01T21:18:49.597Z,12.56
2023-04-01T21:22:09.966Z,12.41
2023-04-01T21:25:53.314Z,12.55
2023-04-01T21:29:28.156Z,12.41
2023-04-01T21:32:45.361Z,12.47
2023-04-01T21:36:05.221Z,12.58
2023-04-01T21:39:07.568Z,12.59
2023-04-01T21:42:40.826Z,12.53
2023-04-01T21:45:51.711Z,12.52
2023-04-01T21:49:02.582Z,12.37
2023-04-01T21:52:42.091Z,12.28
2023-04-01T21:56:11.866Z,12.30
2023-04-01T21:59:32.737Z,12.18
2023-04-01T22:02:47.149Z,12.15
2023-04-01T22:05:57.993Z,12.17
2023-04-01T22:09:18.686Z,12.11
2023-04-01T22:12:27.875Z,12.23
2023-04-01T22:15:52.518Z,12.38
2023-04-01T22:19:32.090Z,12.32
2023-04-01T22:22:55.965Z,12.40
2023-04-01T22:26:18.047Z,12.41
2023-04-01T22:29:42.915Z,12.58
2023-04-01T22:32:48.801Z,12.55
2023-04-01T22:36:09.931Z,12.62
2023-04-01T22:39:44.748Z,12.62
2023-04-01T22:43:17.372Z,12.67
2023-04-01T22:47:16.242Z,12.64
2023-04-01T22:50:36.962Z,12.70
2023-04-01T22:54:01.106Z,12.75
2023-04-01T22:57:06.917Z,12.70
2023-04-01T23:00:23.385Z,12.86
2023-04-01T23:03:32.506Z,12.89
2023-04-01T23:06:40.144Z,12.91
2023-04-01T23:09:42.511Z,12.56
2023-04-01T23:12:46.252Z,12.54
2023-04-01T23:15:48.768Z,12.64
2023-04-01T23:19:02.480Z,12.50
2023-04-01T23:22:26.414Z,12.39
2023-04-01T23:25:38.115Z,12.31
2023-04-01T23:28:50.713Z,12.45
2023-04-01T23:32:05.687Z,12.21
2023-04-01T23:35:17.209Z,12.03
2023-04-01T23:38:20.975Z,12.05
2023-04-01T23:41:31.762Z,12.06
2023-04-01T23:44:35.696Z,12.18
2023-04-01T23:47:40.233Z,12.27
2023-04-01T23:50:42.729Z,12.07
2023-04-01T23:53:47.126Z,12.26
2023-04-01T23:56:53.147Z,12.19
